Time;durP1;ratioP1;P1;durP2;ratioP2;P2;SDS_P1;SDS_P2;PMS_P1;PMS_P2;Temp;Humidity;BMP_temperature;BMP_pressure;BME280_temperature;BME280_humidity;BME280_pressure;Samples;Min_cycle;Max_cycle;Signal;HPM_P1;HPM_P2
2024/01/17 10:16:36;;;;;;;7.63;3.70;;;;;;;20.64;38.62;99176.44;2123942;27;20937;-63
2024/01/17 10:17:40;;;;;;;7.35;3.40;;;;;;;20.66;38.48;99176.84;2113803;28;21369;-63
2024/01/17 10:18:42;;;;;;;5.78;2.90;;;;;;;20.66;38.21;99173.34;2105827;28;20150;-62
2024/01/17 10:19:43;;;;;;;5.75;3.15;;;;;;;20.66;37.92;99181.53;2096850;28;20091;-64
2024/01/17 10:20:45;;;;;;;6.35;3.70;;;;;;;20.66;37.76;99165.13;2105097;28;20032;-63
2024/01/17 10:21:49;;;;;;;5.20;3.40;;;;;;;20.67;37.90;99172.94;2106031;27;20028;-63
2024/01/17 10:22:52;;;;;;;6.18;3.22;;;;;;;20.69;37.62;99178.81;2122399;27;20062;-64
2024/01/17 10:23:53;;;;;;;8.93;3.72;;;;;;;20.71;37.70;99162.03;2113578;28;20025;-64
2024/01/17 10:24:54;;;;;;;6.47;3.40;;;;;;;20.75;37.58;99168.31;2105097;28;20025;-64
2024/01/17 10:25:59;;;;;;;8.18;3.22;;;;;;;20.77;37.58;99171.44;2125750;27;20024;-64
2024/01/17 10:27:04;;;;;;;7.28;3.28;;;;;;;20.80;37.55;99167.94;2120408;27;20059;-65
2024/01/17 10:28:06;;;;;;;5.13;3.53;;;;;;;20.83;37.61;99159.00;2121977;27;20774;-62
2024/01/17 10:29:10;;;;;;;7.47;3.05;;;;;;;20.87;37.64;99168.00;2122497;27;20860;-65
2024/01/17 10:30:13;;;;;;;6.53;3.60;;;;;;;20.90;37.61;99153.59;2121980;27;20986;-66
2024/01/17 10:31:19;;;;;;;8.35;4.53;;;;;;;20.95;37.72;99158.66;2113951;27;20075;-66
2024/01/17 10:32:23;;;;;;;6.22;2.97;;;;;;;20.99;37.51;99156.72;2121321;27;20047;-65
2024/01/17 10:33:25;;;;;;;4.40;2.95;;;;;;;21.03;37.52;99160.28;2122204;27;20043;-65
2024/01/17 10:34:28;;;;;;;8.23;3.10;;;;;;;21.07;37.84;99157.56;2113578;27;20157;-63
2024/01/17 10:35:30;;;;;;;6.30;2.85;;;;;;;21.11;37.60;99157.56;2114116;27;20320;-64
2024/01/17 10:36:33;;;;;;;8.18;3.25;;;;;;;21.14;37.68;99145.88;2130494;27;20859;-63
2024/01/17 10:37:35;;;;;;;7.00;3.30;;;;;;;21.18;37.50;99143.94;2121615;27;21226;-64
2024/01/17 10:38:37;;;;;;;5.65;3.20;;;;;;;21.20;37.52;99136.94;2113209;27;20036;-64
2024/01/17 10:39:40;;;;;;;6.57;3.30;;;;;;;21.26;37.34;99140.06;2104464;28;20021;-64
2024/01/17 10:40:44;;;;;;;4.85;3.08;;;;;;;21.30;37.44;99135.41;2104923;27;20044;-64
2024/01/17 10:41:54;;;;;;;6.65;3.42;;;;;;;21.33;37.23;99147.50;2105603;27;20913;-64
2024/01/17 10:43:13;;;;;;;6.88;2.97;;;;;;;21.36;37.22;99131.16;2107296;27;20033;-64
2024/01/17 10:44:17;;;;;;;5.65;3.38;;;;;;;21.38;37.13;99134.28;2125128;27;20028;-64
2024/01/17 10:45:21;;;;;;;5.95;3.22;;;;;;;21.41;37.27;99125.31;2129938;27;20830;-64
2024/01/17 10:46:23;;;;;;;6.78;3.10;;;;;;;21.44;37.06;99126.50;2121969;27;20109;-64
2024/01/17 10:47:25;;;;;;;6.75;3.70;;;;;;;21.46;37.13;99135.88;2113563;27;20151;-64
2024/01/17 10:48:27;;;;;;;7.32;3.55;;;;;;;21.47;36.78;99137.44;2096570;28;20060;-64
2024/01/17 10:49:30;;;;;;;9.90;4.75;;;;;;;21.49;36.83;99135.09;2104945;27;20259;-64
2024/01/17 10:50:31;;;;;;;7.00;3.28;;;;;;;21.50;36.95;99128.47;2113579;27;20036;-64
2024/01/17 10:51:35;;;;;;;7.00;3.70;;;;;;;21.54;36.79;99122.22;2112793;27;20058;-64
2024/01/17 10:52:40;;;;;;;6.18;3.33;;;;;;;21.56;36.83;99125.34;2114507;27;20150;-64
2024/01/17 10:53:42;;;;;;;6.03;3.75;;;;;;;21.58;36.79;99125.75;2130374;27;20126;-64
2024/01/17 10:54:45;;;;;;;5.95;3.65;;;;;;;21.60;36.73;99120.69;2113833;27;20024;-64
2024/01/17 10:55:50;;;;;;;7.05;3.65;;;;;;;21.61;36.63;99112.06;2122197;27;20126;-64
2024/01/17 10:56:55;;;;;;;10.63;3.30;;;;;;;21.62;36.74;99110.13;2123145;27;20119;-64
2024/01/17 10:57:59;;;;;;;6.65;3.55;;;;;;;21.63;36.60;99107.00;2114100;27;20032;-64
2024/01/17 10:59:05;;;;;;;8.07;4.47;;;;;;;21.65;36.61;99101.13;2122361;27;20028;-64
2024/01/17 11:00:11;;;;;;;6.43;3.50;;;;;;;21.66;36.54;99106.25;2122614;27;20858;-64
2024/01/17 11:01:14;;;;;;;6.70;3.45;;;;;;;21.67;36.52;99107.78;2131292;27;20028;-64
2024/01/17 11:02:22;;;;;;;7.95;3.33;;;;;;;21.68;36.54;99098.41;2121974;27;20040;-64
2024/01/17 11:03:28;;;;;;;5.45;3.20;;;;;;;21.70;36.59;99098.03;2115253;27;20043;-63
2024/01/17 11:04:34;;;;;;;7.38;3.80;;;;;;;21.71;36.43;99096.84;2122445;27;20020;-64
2024/01/17 11:05:59;;;;;;;5.05;3.00;;;;;;;21.73;36.28;99094.53;2122619;27;20778;-64
2024/01/17 11:07:05;;;;;;;6.15;3.65;;;;;;;21.73;36.33;99083.56;2110461;28;20032;-64
2024/01/17 11:08:07;;;;;;;5.75;3.30;;;;;;;21.74;36.30;99091.38;2107032;27;20021;-64
2024/01/17 11:09:12;;;;;;;6.72;3.20;;;;;;;21.76;36.16;99085.53;2113849;27;20074;-64
2024/01/17 11:10:15;;;;;;;5.82;3.03;;;;;;;21.78;36.15;99085.91;2113704;27;20149;-64
2024/01/17 11:11:18;;;;;;;5.80;3.00;;;;;;;21.79;36.20;99071.06;2122156;27;20146;-64
2024/01/17 11:12:21;;;;;;;9.27;3.80;;;;;;;21.80;36.34;99071.84;2105244;28;20913;-64
2024/01/17 11:13:25;;;;;;;5.25;3.35;;;;;;;21.82;36.09;99072.25;2105734;27;20809;-64
2024/01/17 11:14:31;;;;;;;5.65;3.20;;;;;;;21.82;36.07;99070.28;2113567;27;20040;-64
2024/01/17 11:15:34;;;;;;;10.20;4.05;;;;;;;21.82;35.92;99067.56;2114979;27;20027;-64
2024/01/17 11:16:38;;;;;;;7.70;3.60;;;;;;;21.85;36.04;99064.03;2121720;27;20016;-64
2024/01/17 11:17:40;;;;;;;6.28;3.40;;;;;;;21.85;36.03;99066.00;2130546;27;20015;-64
2024/01/17 11:18:46;;;;;;;7.13;3.45;;;;;;;21.87;35.96;99069.13;2121943;27;20842;-63
2024/01/17 11:19:49;;;;;;;4.97;3.33;;;;;;;21.88;35.98;99066.00;2114118;27;20020;-64
2024/01/17 11:20:51;;;;;;;6.05;3.30;;;;;;;21.89;35.95;99064.81;2130316;27;20887;-64
2024/01/17 11:21:56;;;;;;;5.88;3.38;;;;;;;21.91;35.67;99067.16;2131140;27;20846;-64
2024/01/17 11:23:04;;;;;;;6.38;3.65;;;;;;;21.92;35.88;99053.09;2130861;27;20040;-64
2024/01/17 11:24:30;;;;;;;6.30;3.53;;;;;;;21.94;35.88;99052.69;2130468;27;20028;-64
2024/01/17 11:26:00;;;;;;;5.68;3.70;;;;;;;21.95;35.67;99055.03;2114000;27;20032;-64
2024/01/17 11:27:01;;;;;;;8.02;3.70;;;;;;;21.96;35.65;99053.88;2125969;27;20089;-64
2024/01/17 11:28:57;;;;;;;6.72;3.33;;;;;;;21.98;35.66;99051.53;2124994;27;20832;-64
2024/01/17 11:30:49;;;;;;;5.97;3.35;;;;;;;22.01;35.67;99043.72;2120887;27;20056;-64
2024/01/17 11:32:35;;;;;;;4.82;3.30;;;;;;;22.03;35.52;99044.09;2096801;28;20037;-64
2024/01/17 11:33:37;;;;;;;5.40;2.80;;;;;;;22.04;35.68;99040.19;2089613;28;20103;-63
2024/01/17 11:34:39;;;;;;;7.03;3.80;;;;;;;22.05;35.57;99039.00;2108059;28;20206;-64
2024/01/17 11:35:45;;;;;;;9.00;3.78;;;;;;;22.06;35.43;99040.56;2090833;28;20064;-64
2024/01/17 11:36:49;;;;;;;5.15;3.08;;;;;;;22.06;35.43;99033.13;2091519;28;20029;-66
2024/01/17 11:37:51;;;;;;;6.00;3.33;;;;;;;22.08;35.50;99035.50;2109032;27;20037;-64
2024/01/17 11:38:53;;;;;;;5.95;3.75;;;;;;;22.08;35.51;99021.81;2116225;28;20036;-65
2024/01/17 11:39:57;;;;;;;5.90;3.40;;;;;;;22.10;35.42;99027.66;2099363;28;20096;-64
2024/01/17 11:41:06;;;;;;;6.25;3.03;;;;;;;22.11;35.27;99015.53;2108431;27;20047;-65
2024/01/17 11:42:08;;;;;;;5.35;3.17;;;;;;;22.11;35.37;99019.06;2117019;27;20077;-66
2024/01/17 11:43:09;;;;;;;10.45;6.15;;;;;;;22.10;33.57;99014.78;2115502;28;20040;-63
2024/01/17 11:44:12;;;;;;;9.23;5.10;;;;;;;22.06;33.17;99013.97;2106991;27;20032;-64
2024/01/17 11:45:13;;;;;;;8.40;4.18;;;;;;;22.02;33.20;99006.97;2115530;28;20035;-63
2024/01/17 11:46:15;;;;;;;8.45;3.97;;;;;;;21.97;33.11;99003.44;2105915;28;20107;-64
2024/01/17 11:47:20;;;;;;;5.28;3.33;;;;;;;21.95;33.39;98996.81;2107404;27;20040;-64
2024/01/17 11:48:27;;;;;;;4.88;3.13;;;;;;;21.92;33.62;98992.91;2115155;27;21229;-64
2024/01/17 11:49:59;;;;;;;4.95;3.00;;;;;;;21.91;33.60;98985.88;2107817;28;20135;-64
2024/01/17 11:51:14;;;;;;;4.47;2.42;;;;;;;21.93;34.11;98988.19;2118953;27;20038;-63
2024/01/17 11:52:34;;;;;;;5.13;2.75;;;;;;;21.93;33.95;98978.03;2124106;27;20081;-63
2024/01/17 11:53:41;;;;;;;5.22;2.70;;;;;;;21.93;34.03;98980.00;2114810;28;20075;-63
2024/01/17 11:54:45;;;;;;;5.53;3.08;;;;;;;21.94;34.06;98979.59;2099468;28;20068;-63
2024/01/17 11:55:49;;;;;;;4.10;2.80;;;;;;;21.95;34.14;98981.16;2107307;28;20029;-63
2024/01/17 11:56:56;;;;;;;4.53;2.50;;;;;;;21.96;34.19;98982.72;2114351;28;20036;-63
2024/01/17 11:58:00;;;;;;;3.55;2.30;;;;;;;21.97;34.32;98970.63;2108355;27;20024;-63
2024/01/17 11:59:12;;;;;;;4.03;2.40;;;;;;;22.02;34.20;98968.66;2115402;28;20119;-63
2024/01/17 12:00:20;;;;;;;3.95;2.22;;;;;;;22.03;34.33;98964.72;2116516;27;20062;-63
2024/01/17 12:01:21;;;;;;;4.20;2.60;;;;;;;22.04;34.30;98961.59;2116220;27;20781;-63
2024/01/17 12:02:43;;;;;;;3.35;2.13;;;;;;;22.06;34.37;98963.94;2106477;28;20050;-63
2024/01/17 12:03:44;;;;;;;4.75;2.88;;;;;;;22.08;34.37;98953.38;2104248;28;20822;-64
2024/01/17 12:04:46;;;;;;;3.05;2.35;;;;;;;22.10;34.41;98959.22;2098704;28;20087;-64
2024/01/17 12:05:51;;;;;;;5.22;2.35;;;;;;;22.12;34.59;98962.34;2090396;28;20041;-64
2024/01/17 12:06:52;;;;;;;3.70;2.35;;;;;;;22.12;34.53;98952.19;2107758;27;20033;-64
2024/01/17 12:07:54;;;;;;;5.50;2.28;;;;;;;22.14;34.74;98955.31;2123826;27;20518;-64
2024/01/17 12:08:56;;;;;;;4.55;2.42;;;;;;;22.17;34.62;98956.50;2106437;28;20041;-64
2024/01/17 12:09:58;;;;;;;5.88;2.95;;;;;;;22.19;34.79;98962.34;2093330;28;20042;-64
2024/01/17 12:11:00;;;;;;;5.00;2.92;;;;;;;22.20;34.76;98955.72;2098791;28;20855;-64
2024/01/17 12:12:02;;;;;;;5.80;2.80;;;;;;;22.24;34.84;98958.44;2106701;28;20043;-64
2024/01/17 12:13:04;;;;;;;4.57;2.70;;;;;;;22.24;34.79;98951.00;2106908;27;20067;-64
2024/01/17 12:14:06;;;;;;;5.75;2.85;;;;;;;22.26;34.83;98956.06;2132253;27;20038;-64
2024/01/17 12:15:10;;;;;;;4.63;2.63;;;;;;;22.28;34.90;98942.78;2114770;28;20035;-64
2024/01/17 12:16:12;;;;;;;6.07;3.35;;;;;;;22.29;34.87;98938.84;2115843;27;20137;-64
2024/01/17 12:17:14;;;;;;;8.05;4.00;;;;;;;22.30;34.94;98945.91;2123273;27;20032;-64
2024/01/17 12:18:20;;;;;;;7.20;3.92;;;;;;;22.31;34.96;98937.28;2091061;28;20032;-66
2024/01/17 12:19:21;;;;;;;6.75;3.88;;;;;;;22.32;34.95;98944.34;2095115;28;20021;-66
2024/01/17 12:20:25;;;;;;;7.60;4.03;;;;;;;22.34;34.94;98941.97;2089839;28;20033;-65
2024/01/17 12:21:26;;;;;;;6.10;3.67;;;;;;;22.35;35.05;98938.06;2105011;27;20123;-65
2024/01/17 12:22:28;;;;;;;6.25;3.55;;;;;;;22.36;35.04;98934.16;2115097;28;20035;-65
2024/01/17 12:23:31;;;;;;;6.20;3.40;;;;;;;22.38;35.07;98937.28;2106709;28;20029;-66
2024/01/17 12:24:33;;;;;;;7.05;3.33;;;;;;;22.39;35.07;98944.31;2090820;28;20036;-65
2024/01/17 12:25:35;;;;;;;7.15;3.33;;;;;;;22.41;35.13;98931.00;2089962;28;20111;-65
2024/01/17 12:26:37;;;;;;;6.35;3.53;;;;;;;22.41;35.16;98931.00;2114455;27;20131;-65
2024/01/17 12:27:38;;;;;;;6.32;3.28;;;;;;;22.42;35.08;98929.81;2106620;28;20075;-64
2024/01/17 12:28:42;;;;;;;8.98;3.70;;;;;;;22.43;35.10;98925.91;2081977;28;20034;-65
2024/01/17 12:29:45;;;;;;;7.10;3.65;;;;;;;22.44;35.28;98913.75;2106589;28;20032;-64
2024/01/17 12:31:08;;;;;;;7.25;4.07;;;;;;;22.47;35.05;98922.38;2111311;27;20135;-65
2024/01/17 12:32:09;;;;;;;6.85;4.03;;;;;;;22.47;35.24;98903.19;2102569;27;20118;-65
2024/01/17 12:33:11;;;;;;;5.85;3.70;;;;;;;22.48;35.35;98910.22;2098692;28;20044;-65
2024/01/17 12:34:14;;;;;;;7.53;3.70;;;;;;;22.49;35.16;98912.59;2105828;27;20020;-64
2024/01/17 12:35:15;;;;;;;10.02;5.38;;;;;;;22.51;34.76;98912.97;2097522;28;20048;-67
2024/01/17 12:36:23;;;;;;;13.10;6.35;;;;;;;22.48;33.44;98918.44;2106571;28;20075;-64
2024/01/17 12:37:25;;;;;;;9.38;4.68;;;;;;;22.44;33.33;98918.47;2114069;27;20075;-63
2024/01/17 12:38:53;;;;;;;9.10;4.88;;;;;;;22.41;33.51;98914.59;2109234;28;20071;-64
2024/01/17 12:40:04;;;;;;;10.68;5.30;;;;;;;22.39;33.82;98919.66;2106006;27;20056;-64
2024/01/17 12:41:07;;;;;;;8.32;4.30;;;;;;;22.38;34.07;98915.38;2110191;27;20139;-66
2024/01/17 12:42:10;;;;;;;9.65;4.55;;;;;;;22.37;34.30;98908.31;2123535;27;20185;-67
2024/01/17 12:43:12;;;;;;;7.65;4.30;;;;;;;22.38;34.47;98915.38;2113841;27;20912;-66
2024/01/17 12:44:15;;;;;;;8.40;4.53;;;;;;;22.38;34.83;98912.63;2104642;27;20127;-66
2024/01/17 12:45:17;;;;;;;9.90;4.40;;;;;;;22.40;34.90;98910.25;2113672;28;20141;-66
2024/01/17 12:46:20;;;;;;;8.10;4.50;;;;;;;22.41;34.93;98909.09;2112523;28;20043;-67
2024/01/17 12:47:22;;;;;;;9.15;3.78;;;;;;;22.39;35.01;98900.50;2105188;28;20037;-66
2024/01/17 12:48:25;;;;;;;10.55;4.05;;;;;;;22.43;35.24;98900.47;2104865;28;20043;-66
2024/01/17 12:49:29;;;;;;;9.30;3.90;;;;;;;22.43;35.10;98895.78;2105621;28;20874;-66
2024/01/17 12:50:33;;;;;;;7.53;3.90;;;;;;;22.43;35.39;98895.78;2106234;27;20098;-66
2024/01/17 12:51:37;;;;;;;8.63;3.78;;;;;;;22.46;35.52;98899.69;2092902;28;20200;-66
2024/01/17 12:52:43;;;;;;;7.75;3.85;;;;;;;22.49;35.58;98895.38;2105835;28;20107;-66
2024/01/17 12:53:45;;;;;;;8.93;4.22;;;;;;;22.49;35.63;98887.16;2119271;27;20121;-66
2024/01/17 12:54:46;;;;;;;9.55;3.90;;;;;;;22.51;35.81;98896.53;2121692;27;20028;-66
2024/01/17 12:55:48;;;;;;;7.03;3.60;;;;;;;22.53;35.86;98893.38;2122194;27;20881;-65
2024/01/17 12:56:51;;;;;;;9.05;3.95;;;;;;;22.55;36.06;98888.28;2096709;28;20041;-65
2024/01/17 12:57:52;;;;;;;8.77;3.75;;;;;;;22.55;36.08;98891.81;2088945;28;20902;-64
2024/01/17 12:58:53;;;;;;;7.10;3.58;;;;;;;22.57;36.10;98889.47;2105240;27;20049;-65
2024/01/17 12:59:55;;;;;;;8.13;3.53;;;;;;;22.58;36.39;98884.75;2106448;28;20857;-64
2024/01/17 13:00:57;;;;;;;6.63;3.63;;;;;;;22.59;36.37;98886.31;2120618;27;20036;-65
2024/01/17 13:02:00;;;;;;;7.50;3.42;;;;;;;22.60;36.36;98893.34;2113334;28;20019;-63
2024/01/17 13:03:03;;;;;;;7.95;3.83;;;;;;;22.62;36.55;98889.03;2105535;28;20024;-66
2024/01/17 13:04:05;;;;;;;10.52;4.05;;;;;;;22.64;36.74;98891.38;2114258;27;20076;-64
2024/01/17 13:05:26;;;;;;;9.45;4.22;;;;;;;22.66;36.80;98886.25;2122434;27;20946;-63
2024/01/17 13:06:30;;;;;;;8.70;4.13;;;;;;;22.67;37.02;98894.09;2098619;28;20053;-61
2024/01/17 13:07:32;;;;;;;9.70;5.40;;;;;;;22.70;37.08;98892.53;2106444;27;20920;-63
2024/01/17 13:08:34;;;;;;;10.05;6.05;;;;;;;22.71;37.23;98888.59;2105596;28;20078;-65
2024/01/17 13:09:36;;;;;;;10.07;6.00;;;;;;;22.73;37.41;98885.44;2097619;28;20025;-64
2024/01/17 13:10:38;;;;;;;10.18;6.05;;;;;;;22.73;37.40;98874.47;2114307;28;20113;-62
2024/01/17 13:11:40;;;;;;;11.75;6.32;;;;;;;22.75;37.61;98861.94;2113985;28;20888;-62
2024/01/17 13:12:42;;;;;;;10.63;6.75;;;;;;;22.77;37.69;98867.03;2114465;28;20028;-63
2024/01/17 13:13:44;;;;;;;10.90;7.32;;;;;;;22.79;37.67;98872.88;2114214;28;20028;-64
2024/01/17 13:14:45;;;;;;;11.45;7.47;;;;;;;22.79;37.79;98865.47;2105842;28;20878;-64
2024/01/17 13:15:51;;;;;;;11.50;7.40;;;;;;;22.81;37.92;98857.59;2088868;28;20119;-64
2024/01/17 13:16:53;;;;;;;11.02;7.40;;;;;;;22.84;38.11;98856.00;2098088;28;20021;-64
2024/01/17 13:17:56;;;;;;;13.23;7.90;;;;;;;22.84;38.05;98854.06;2106044;28;20016;-65
2024/01/17 13:18:59;;;;;;;10.82;7.45;;;;;;;22.86;38.04;98845.44;2114277;28;20034;-65
2024/01/17 13:20:00;;;;;;;12.05;7.72;;;;;;;22.87;38.08;98850.50;2105565;28;20025;-66
2024/01/17 13:21:17;;;;;;;11.75;8.13;;;;;;;22.89;38.14;98859.13;2114566;28;20143;-66
2024/01/17 13:22:22;;;;;;;13.40;8.23;;;;;;;22.88;37.38;98851.28;2105661;28;20031;-66
2024/01/17 13:23:24;;;;;;;11.93;8.00;;;;;;;22.87;37.30;98845.03;2097757;28;20121;-65
2024/01/17 13:24:25;;;;;;;11.77;7.53;;;;;;;22.87;37.33;98856.00;2089047;28;20069;-66
2024/01/17 13:25:27;;;;;;;16.77;8.98;;;;;;;22.85;37.51;98850.13;2097228;28;20021;-63
2024/01/17 13:26:30;;;;;;;13.85;8.20;;;;;;;22.86;37.57;98845.44;2099039;28;20036;-64
2024/01/17 13:27:32;;;;;;;12.90;8.18;;;;;;;22.85;37.80;98860.31;2105807;27;20039;-64
2024/01/17 13:28:33;;;;;;;12.20;8.02;;;;;;;22.84;37.74;98865.00;2113568;27;20043;-65
2024/01/17 13:29:36;;;;;;;13.50;7.68;;;;;;;22.83;37.81;98847.03;2121745;27;20030;-67
2024/01/17 13:30:40;;;;;;;13.25;8.02;;;;;;;22.84;37.97;98859.53;2121798;27;20144;-65
2024/01/17 13:31:42;;;;;;;13.00;7.60;;;;;;;22.84;37.96;98845.81;2111546;28;20880;-65
2024/01/17 13:32:50;;;;;;;11.85;7.35;;;;;;;22.85;38.05;98852.84;2102607;27;20048;-64
2024/01/17 13:33:53;;;;;;;14.82;7.43;;;;;;;22.84;38.11;98840.34;2114555;27;20027;-64
2024/01/17 13:34:58;;;;;;;11.80;6.95;;;;;;;22.84;37.94;98845.81;2121652;27;20948;-64
2024/01/17 13:36:00;;;;;;;11.43;7.15;;;;;;;22.83;37.99;98841.53;2121787;27;20028;-63
2024/01/17 13:37:01;;;;;;;10.32;6.78;;;;;;;22.84;38.11;98836.84;2129352;27;20049;-64
2024/01/17 13:38:02;;;;;;;13.25;6.78;;;;;;;22.84;38.05;98842.31;2122484;27;20097;-64
2024/01/17 13:39:05;;;;;;;10.45;6.50;;;;;;;22.85;37.99;98843.88;2121668;27;20034;-65
2024/01/17 13:40:11;;;;;;;11.23;6.70;;;;;;;22.85;37.97;98852.84;2130388;27;20034;-65
2024/01/17 13:41:15;;;;;;;10.70;6.63;;;;;;;22.84;38.17;98843.09;2121993;27;20142;-65
2024/01/17 13:42:17;;;;;;;9.90;6.53;;;;;;;22.84;38.08;98839.56;2105946;27;20032;-63
2024/01/17 13:43:20;;;;;;;11.20;6.30;;;;;;;22.85;37.94;98839.16;2122251;27;20026;-63
2024/01/17 13:44:23;;;;;;;11.27;6.50;;;;;;;22.84;38.04;98832.13;2122385;27;20846;-63
2024/01/17 13:45:25;;;;;;;11.65;6.07;;;;;;;22.84;38.08;98831.34;2122397;27;20119;-64
2024/01/17 13:46:27;;;;;;;12.15;5.80;;;;;;;22.84;38.06;98821.16;2122529;27;20073;-64
2024/01/17 13:47:31;;;;;;;10.77;5.97;;;;;;;22.86;37.96;98818.81;2130719;27;20975;-63
2024/01/17 13:48:33;;;;;;;10.48;5.65;;;;;;;22.86;38.02;98829.78;2114125;27;20028;-62
2024/01/17 13:49:37;;;;;;;8.68;5.60;;;;;;;22.85;38.01;98811.75;2113519;27;20044;-63
2024/01/17 13:50:38;;;;;;;7.75;5.03;;;;;;;22.87;37.87;98823.09;2114105;27;20040;-63
2024/01/17 13:51:44;;;;;;;9.55;5.20;;;;;;;22.87;38.00;98814.09;2122400;27;20849;-65
2024/01/17 13:52:57;;;;;;;10.25;6.07;;;;;;;22.86;37.89;98818.81;2114260;27;20201;-64
2024/01/17 13:54:04;;;;;;;9.65;5.57;;;;;;;22.87;37.91;98823.09;2117278;27;20032;-64
2024/01/17 13:55:07;;;;;;;10.40;5.80;;;;;;;22.87;37.79;98808.63;2122483;27;20117;-63
2024/01/17 13:56:10;;;;;;;9.55;5.85;;;;;;;22.87;37.77;98809.41;2114118;27;20040;-62
2024/01/17 13:57:12;;;;;;;8.45;5.15;;;;;;;22.87;37.81;98809.41;2087904;28;21497;-65
2024/01/17 13:58:14;;;;;;;9.57;5.38;;;;;;;22.87;37.89;98809.41;2088976;28;20041;-65
2024/01/17 13:59:16;;;;;;;10.30;5.40;;;;;;;22.87;37.74;98806.66;2092785;27;20033;-65
2024/01/17 14:00:22;;;;;;;10.23;5.53;;;;;;;22.87;37.64;98794.94;2104315;28;20029;-65
2024/01/17 14:01:24;;;;;;;8.88;5.22;;;;;;;22.88;37.74;98799.22;2106797;27;20033;-65
2024/01/17 14:02:25;;;;;;;9.02;4.93;;;;;;;22.87;37.74;98806.66;2122312;27;20036;-64
2024/01/17 14:03:28;;;;;;;9.57;4.68;;;;;;;22.88;37.65;98805.47;2122588;27;20100;-64
2024/01/17 14:04:30;;;;;;;8.32;4.82;;;;;;;22.89;37.67;98807.03;2122587;27;20105;-65
2024/01/17 14:05:33;;;;;;;8.25;4.70;;;;;;;22.89;37.61;98803.53;2113506;27;20766;-65
2024/01/17 14:06:35;;;;;;;7.45;4.40;;;;;;;22.90;37.58;98797.63;2105681;28;20044;-65
2024/01/17 14:07:39;;;;;;;7.50;4.63;;;;;;;22.90;37.54;98805.09;2105572;28;20029;-65
2024/01/17 14:08:41;;;;;;;7.05;4.40;;;;;;;22.90;37.60;98797.63;2113794;27;20020;-64
2024/01/17 14:09:44;;;;;;;6.78;4.20;;;;;;;22.90;37.56;98803.13;2104067;28;20139;-64
2024/01/17 14:10:46;;;;;;;7.53;4.55;;;;;;;22.90;37.43;98797.63;2097837;27;20020;-65
2024/01/17 14:11:49;;;;;;;6.75;3.97;;;;;;;22.90;37.29;98794.91;2097014;28;20025;-65
2024/01/17 14:12:53;;;;;;;6.72;4.28;;;;;;;22.93;37.45;98803.50;2098416;27;20041;-64
2024/01/17 14:13:55;;;;;;;6.57;3.65;;;;;;;22.92;37.42;98794.50;2122047;27;20096;-64
2024/01/17 14:14:57;;;;;;;7.10;3.78;;;;;;;22.91;37.38;98785.47;2121802;27;20036;-65
2024/01/17 14:15:59;;;;;;;6.78;3.90;;;;;;;22.93;37.35;98787.06;2103170;28;20141;-65
2024/01/17 14:17:04;;;;;;;8.77;4.80;;;;;;;22.93;37.37;98781.56;2105373;27;20059;-66
2024/01/17 14:18:06;;;;;;;6.78;3.90;;;;;;;22.93;37.43;98778.84;2105545;27;20175;-65
2024/01/17 14:19:07;;;;;;;9.30;3.97;;;;;;;22.93;37.41;98776.88;2105360;28;21248;-65
2024/01/17 14:20:16;;;;;;;7.00;4.18;;;;;;;22.92;37.32;98769.84;2119743;27;20024;-65
2024/01/17 14:21:18;;;;;;;9.18;4.10;;;;;;;22.92;37.16;98756.13;2122709;27;20046;-65
2024/01/17 14:22:19;;;;;;;7.40;3.78;;;;;;;22.93;37.21;98746.72;2104261;28;20037;-66
2024/01/17 14:23:21;;;;;;;5.80;3.88;;;;;;;22.92;37.26;98739.69;2088505;28;20127;-64
2024/01/17 14:24:25;;;;;;;6.35;3.55;;;;;;;22.93;37.18;98741.25;2105322;27;20934;-64
2024/01/17 14:25:27;;;;;;;6.65;3.80;;;;;;;22.94;37.04;98742.03;2121978;27;20024;-63
2024/01/17 14:26:29;;;;;;;6.22;3.53;;;;;;;22.93;37.12;98729.50;2121595;27;20776;-64
2024/01/17 14:27:32;;;;;;;6.05;3.80;;;;;;;22.93;37.17;98732.25;2121989;27;20880;-64
2024/01/17 14:28:35;;;;;;;5.97;3.78;;;;;;;22.93;36.97;98732.25;2121741;27;20031;-63
2024/01/17 14:29:37;;;;;;;6.30;3.85;;;;;;;22.93;37.08;98729.50;2104829;28;20109;-63
2024/01/17 14:30:39;;;;;;;6.88;4.00;;;;;;;22.92;36.95;98723.25;2112265;27;20059;-64
2024/01/17 14:31:40;;;;;;;8.68;4.07;;;;;;;22.91;36.82;98711.50;2121648;27;20877;-64
2024/01/17 14:32:42;;;;;;;6.07;3.45;;;;;;;22.93;36.75;98718.53;2113346;27;20034;-63
2024/01/17 14:33:45;;;;;;;6.05;3.60;;;;;;;22.92;36.85;98712.28;2122033;27;20128;-65
2024/01/17 14:34:47;;;;;;;6.35;3.40;;;;;;;22.91;36.80;98714.22;2112923;27;20036;-62
2024/01/17 14:35:49;;;;;;;5.65;3.45;;;;;;;22.92;36.67;98717.78;2105170;27;20027;-64
2024/01/17 14:36:52;;;;;;;6.60;3.60;;;;;;;22.93;36.69;98713.06;2104990;28;20159;-64
2024/01/17 14:37:57;;;;;;;5.60;3.53;;;;;;;22.92;36.67;98709.56;2113156;27;20109;-64
2024/01/17 14:38:59;;;;;;;5.78;3.25;;;;;;;22.93;36.58;98707.59;2121400;27;20886;-64
2024/01/17 14:40:02;;;;;;;6.50;3.42;;;;;;;22.91;36.60;98721.69;2105072;28;20027;-65
2024/01/17 14:41:03;;;;;;;5.32;3.40;;;;;;;22.91;36.64;98716.97;2112811;27;20032;-65
2024/01/17 14:42:07;;;;;;;5.05;3.22;;;;;;;22.91;36.43;98711.50;2119223;27;20101;-64
2024/01/17 14:43:08;;;;;;;4.93;3.30;;;;;;;22.92;36.51;98717.78;2121478;27;20248;-63
2024/01/17 14:44:11;;;;;;;4.85;3.30;;;;;;;22.90;36.39;98709.94;2105003;28;20135;-64
2024/01/17 14:45:14;;;;;;;7.28;3.60;;;;;;;22.91;36.49;98716.97;2102881;28;20954;-64
2024/01/17 14:46:16;;;;;;;4.85;2.97;;;;;;;22.90;36.37;98709.94;2113662;27;20028;-64
2024/01/17 14:47:20;;;;;;;5.93;3.40;;;;;;;22.90;36.43;98703.69;2121483;27;20031;-63
2024/01/17 14:48:24;;;;;;;5.97;3.40;;;;;;;22.90;36.25;98712.69;2121874;27;20036;-64
2024/01/17 14:49:27;;;;;;;5.78;3.10;;;;;;;22.89;36.27;98700.16;2121981;27;20992;-62
2024/01/17 14:50:30;;;;;;;5.22;3.17;;;;;;;22.90;36.23;98700.94;2130370;27;20024;-64
2024/01/17 14:51:31;;;;;;;5.35;3.05;;;;;;;22.89;36.31;98691.94;2121921;27;20028;-64
2024/01/17 14:52:32;;;;;;;4.88;3.10;;;;;;;22.89;36.17;98689.22;2130523;27;20102;-64
2024/01/17 14:53:35;;;;;;;5.63;3.22;;;;;;;22.89;36.19;98691.94;2130008;27;20766;-64
2024/01/17 14:54:39;;;;;;;5.43;3.40;;;;;;;22.89;36.08;98682.97;2118541;27;20142;-64
2024/01/17 14:55:41;;;;;;;4.78;3.15;;;;;;;22.88;36.01;98693.13;2113241;28;20047;-64
2024/01/17 14:56:43;;;;;;;5.57;3.17;;;;;;;22.91;36.08;98683.31;2105219;28;20036;-64
2024/01/17 14:57:45;;;;;;;6.22;3.28;;;;;;;22.89;36.05;98680.22;2104893;28;20025;-64
2024/01/17 14:58:46;;;;;;;6.38;2.85;;;;;;;22.89;35.95;98669.25;2105109;28;20040;-65
2024/01/17 14:59:48;;;;;;;5.13;2.95;;;;;;;22.89;36.01;98677.47;2113483;28;20113;-66
2024/01/17 15:00:50;;;;;;;5.50;3.28;;;;;;;22.89;35.95;98670.03;2104978;28;20037;-66
2024/01/17 15:01:53;;;;;;;5.63;3.05;;;;;;;22.89;35.84;98655.56;2087394;28;20155;-66
2024/01/17 15:02:58;;;;;;;5.25;3.15;;;;;;;22.89;35.90;98661.03;2102640;27;20810;-66
2024/01/17 15:03:59;;;;;;;4.63;3.00;;;;;;;22.88;35.95;98660.22;2123598;27;20024;-67
2024/01/17 15:05:01;;;;;;;5.75;3.00;;;;;;;22.89;35.88;98666.50;2124607;27;20032;-66
2024/01/17 15:06:03;;;;;;;5.50;2.83;;;;;;;22.89;35.85;98667.28;2115056;27;21211;-66
2024/01/17 15:07:05;;;;;;;5.18;2.90;;;;;;;22.88;35.77;98657.50;2123311;27;20815;-66
2024/01/17 15:08:07;;;;;;;4.93;2.95;;;;;;;22.88;35.81;98656.72;2124251;27;20056;-65
2024/01/17 15:09:12;;;;;;;5.32;3.03;;;;;;;22.85;35.91;98657.53;2123046;27;20090;-66
2024/01/17 15:10:15;;;;;;;4.60;2.88;;;;;;;22.88;35.82;98646.53;2115594;27;20985;-64
2024/01/17 15:11:17;;;;;;;4.90;2.92;;;;;;;22.88;35.74;98651.25;2106678;28;20219;-64
2024/01/17 15:12:19;;;;;;;4.65;2.90;;;;;;;22.88;35.74;98654.75;2103995;27;20032;-65
2024/01/17 15:13:23;;;;;;;4.30;2.70;;;;;;;22.89;35.69;98645.38;2123089;27;20056;-65
2024/01/17 15:14:27;;;;;;;4.82;2.92;;;;;;;22.88;35.76;98646.53;2123529;27;20023;-65
2024/01/17 15:15:29;;;;;;;5.38;2.90;;;;;;;22.89;35.76;98639.13;2105388;28;20143;-65
2024/01/17 15:16:32;;;;;;;6.28;2.83;;;;;;;22.89;35.68;98648.09;2087330;28;20038;-66
2024/01/17 15:17:37;;;;;;;4.80;2.90;;;;;;;22.90;35.72;98640.66;2102902;27;20140;-64
2024/01/17 15:18:40;;;;;;;4.97;2.95;;;;;;;22.89;35.76;98644.59;2111116;28;20031;-63